sensor_id;sensor_type;location;lat;lon;timestamp;P1;durP1;ratioP1;P2;durP2;ratioP2
32108;SDS011;18624;50.042;8.436;2024-01-25T00:00:04;17.38;;;7.55;;
32108;SDS011;18624;50.042;8.436;2024-01-25T00:02:31;29.17;;;9.00;;
32108;SDS011;18624;50.042;8.436;2024-01-25T00:04:57;28.55;;;9.85;;
32108;SDS011;18624;50.042;8.436;2024-01-25T00:07:24;22.88;;;8.10;;
32108;SDS011;18624;50.042;8.436;2024-01-25T00:09:50;21.73;;;8.38;;
32108;SDS011;18624;50.042;8.436;2024-01-25T00:12:17;26.50;;;8.65;;
32108;SDS011;18624;50.042;8.436;2024-01-25T00:14:43;25.30;;;9.30;;
32108;SDS011;18624;50.042;8.436;2024-01-25T00:17:10;30.83;;;9.90;;
32108;SDS011;18624;50.042;8.436;2024-01-25T00:19:36;24.38;;;8.63;;
32108;SDS011;18624;50.042;8.436;2024-01-25T00:22:03;27.02;;;9.75;;
32108;SDS011;18624;50.042;8.436;2024-01-25T00:24:30;28.58;;;10.15;;
32108;SDS011;18624;50.042;8.436;2024-01-25T00:26:56;26.02;;;9.85;;
32108;SDS011;18624;50.042;8.436;2024-01-25T00:29:23;21.13;;;8.48;;
32108;SDS011;18624;50.042;8.436;2024-01-25T00:31:49;25.30;;;8.25;;
32108;SDS011;18624;50.042;8.436;2024-01-25T00:34:16;25.50;;;8.82;;
32108;SDS011;18624;50.042;8.436;2024-01-25T00:36:43;21.98;;;8.85;;
32108;SDS011;18624;50.042;8.436;2024-01-25T00:39:10;28.83;;;9.57;;
32108;SDS011;18624;50.042;8.436;2024-01-25T00:41:36;22.35;;;9.25;;
32108;SDS011;18624;50.042;8.436;2024-01-25T00:44:04;30.13;;;8.93;;
32108;SDS011;18624;50.042;8.436;2024-01-25T00:46:30;23.45;;;8.13;;
32108;SDS011;18624;50.042;8.436;2024-01-25T00:48:57;21.15;;;7.15;;
32108;SDS011;18624;50.042;8.436;2024-01-25T00:51:24;18.90;;;7.45;;
32108;SDS011;18624;50.042;8.436;2024-01-25T00:53:50;18.52;;;7.40;;
32108;SDS011;18624;50.042;8.436;2024-01-25T00:56:18;18.30;;;7.75;;
32108;SDS011;18624;50.042;8.436;2024-01-25T00:58:45;25.05;;;9.00;;
32108;SDS011;18624;50.042;8.436;2024-01-25T01:01:11;24.50;;;8.75;;
32108;SDS011;18624;50.042;8.436;2024-01-25T01:03:39;23.27;;;8.98;;
32108;SDS011;18624;50.042;8.436;2024-01-25T01:06:06;22.38;;;8.73;;
32108;SDS011;18624;50.042;8.436;2024-01-25T01:08:33;17.80;;;6.95;;
32108;SDS011;18624;50.042;8.436;2024-01-25T01:10:59;20.45;;;7.60;;
32108;SDS011;18624;50.042;8.436;2024-01-25T01:13:26;17.92;;;7.25;;
32108;SDS011;18624;50.042;8.436;2024-01-25T01:15:53;25.52;;;8.70;;
32108;SDS011;18624;50.042;8.436;2024-01-25T01:18:19;24.05;;;7.50;;
32108;SDS011;18624;50.042;8.436;2024-01-25T01:20:46;25.13;;;7.93;;
32108;SDS011;18624;50.042;8.436;2024-01-25T01:23:12;22.77;;;8.88;;
32108;SDS011;18624;50.042;8.436;2024-01-25T01:25:39;20.98;;;8.73;;
32108;SDS011;18624;50.042;8.436;2024-01-25T01:28:05;22.08;;;7.60;;
32108;SDS011;18624;50.042;8.436;2024-01-25T01:30:32;25.83;;;8.60;;
32108;SDS011;18624;50.042;8.436;2024-01-25T01:32:58;20.30;;;8.00;;
32108;SDS011;18624;50.042;8.436;2024-01-25T01:35:25;21.50;;;7.53;;
32108;SDS011;18624;50.042;8.436;2024-01-25T01:37:51;18.77;;;8.02;;
32108;SDS011;18624;50.042;8.436;2024-01-25T01:40:18;15.52;;;6.22;;
32108;SDS011;18624;50.042;8.436;2024-01-25T01:42:44;21.33;;;8.23;;
32108;SDS011;18624;50.042;8.436;2024-01-25T01:45:11;15.93;;;6.28;;
32108;SDS011;18624;50.042;8.436;2024-01-25T01:47:39;21.80;;;7.40;;
32108;SDS011;18624;50.042;8.436;2024-01-25T01:50:06;21.00;;;8.45;;
32108;SDS011;18624;50.042;8.436;2024-01-25T01:52:33;22.17;;;8.63;;
32108;SDS011;18624;50.042;8.436;2024-01-25T01:55:00;22.05;;;8.02;;
32108;SDS011;18624;50.042;8.436;2024-01-25T01:57:26;20.23;;;7.32;;
32108;SDS011;18624;50.042;8.436;2024-01-25T01:59:54;20.33;;;7.82;;
32108;SDS011;18624;50.042;8.436;2024-01-25T02:02:23;22.38;;;9.15;;
32108;SDS011;18624;50.042;8.436;2024-01-25T02:04:50;19.63;;;8.93;;
32108;SDS011;18624;50.042;8.436;2024-01-25T02:07:17;18.83;;;8.38;;
32108;SDS011;18624;50.042;8.436;2024-01-25T02:09:43;18.83;;;8.98;;
32108;SDS011;18624;50.042;8.436;2024-01-25T02:12:10;24.95;;;8.63;;
32108;SDS011;18624;50.042;8.436;2024-01-25T02:14:36;16.60;;;7.50;;
32108;SDS011;18624;50.042;8.436;2024-01-25T02:17:03;22.23;;;6.97;;
32108;SDS011;18624;50.042;8.436;2024-01-25T02:19:29;24.55;;;7.60;;
32108;SDS011;18624;50.042;8.436;2024-01-25T02:21:56;22.98;;;9.20;;
32108;SDS011;18624;50.042;8.436;2024-01-25T02:24:25;30.00;;;9.85;;
32108;SDS011;18624;50.042;8.436;2024-01-25T02:26:51;19.23;;;7.55;;
32108;SDS011;18624;50.042;8.436;2024-01-25T02:29:18;23.08;;;7.75;;
32108;SDS011;18624;50.042;8.436;2024-01-25T02:31:44;29.67;;;8.45;;
32108;SDS011;18624;50.042;8.436;2024-01-25T02:34:11;27.15;;;8.43;;
32108;SDS011;18624;50.042;8.436;2024-01-25T02:36:37;23.75;;;7.13;;
32108;SDS011;18624;50.042;8.436;2024-01-25T02:39:04;25.58;;;10.38;;
32108;SDS011;18624;50.042;8.436;2024-01-25T02:41:31;20.90;;;7.95;;
32108;SDS011;18624;50.042;8.436;2024-01-25T02:43:59;25.90;;;7.63;;
32108;SDS011;18624;50.042;8.436;2024-01-25T02:46:26;23.33;;;8.25;;
32108;SDS011;18624;50.042;8.436;2024-01-25T02:48:52;23.92;;;8.05;;
32108;SDS011;18624;50.042;8.436;2024-01-25T02:51:19;22.08;;;7.88;;
32108;SDS011;18624;50.042;8.436;2024-01-25T02:53:46;23.20;;;7.97;;
32108;SDS011;18624;50.042;8.436;2024-01-25T02:56:12;24.17;;;7.78;;
32108;SDS011;18624;50.042;8.436;2024-01-25T02:58:38;21.48;;;8.27;;
32108;SDS011;18624;50.042;8.436;2024-01-25T03:01:05;25.88;;;8.38;;
32108;SDS011;18624;50.042;8.436;2024-01-25T03:03:31;16.35;;;7.00;;
32108;SDS011;18624;50.042;8.436;2024-01-25T03:05:58;23.58;;;7.97;;
32108;SDS011;18624;50.042;8.436;2024-01-25T03:08:25;26.60;;;7.90;;
32108;SDS011;18624;50.042;8.436;2024-01-25T03:10:51;20.80;;;7.53;;
32108;SDS011;18624;50.042;8.436;2024-01-25T03:13:17;26.83;;;9.98;;
32108;SDS011;18624;50.042;8.436;2024-01-25T03:15:44;23.50;;;9.82;;
32108;SDS011;18624;50.042;8.436;2024-01-25T03:18:11;21.67;;;7.95;;
32108;SDS011;18624;50.042;8.436;2024-01-25T03:20:37;22.17;;;8.35;;
32108;SDS011;18624;50.042;8.436;2024-01-25T03:23:04;24.00;;;8.60;;
32108;SDS011;18624;50.042;8.436;2024-01-25T03:25:30;22.80;;;8.88;;
32108;SDS011;18624;50.042;8.436;2024-01-25T03:27:57;25.63;;;8.52;;
32108;SDS011;18624;50.042;8.436;2024-01-25T03:30:24;27.27;;;9.63;;
32108;SDS011;18624;50.042;8.436;2024-01-25T03:32:50;20.20;;;7.47;;
32108;SDS011;18624;50.042;8.436;2024-01-25T03:35:17;24.92;;;8.68;;
32108;SDS011;18624;50.042;8.436;2024-01-25T03:37:44;22.08;;;8.30;;
32108;SDS011;18624;50.042;8.436;2024-01-25T03:40:10;24.80;;;7.88;;
32108;SDS011;18624;50.042;8.436;2024-01-25T03:42:37;23.92;;;8.02;;
32108;SDS011;18624;50.042;8.436;2024-01-25T03:45:03;26.73;;;9.02;;
32108;SDS011;18624;50.042;8.436;2024-01-25T03:47:30;29.63;;;9.52;;
32108;SDS011;18624;50.042;8.436;2024-01-25T03:49:57;28.60;;;8.18;;
32108;SDS011;18624;50.042;8.436;2024-01-25T03:52:23;26.67;;;9.98;;
32108;SDS011;18624;50.042;8.436;2024-01-25T03:54:50;19.27;;;8.27;;
32108;SDS011;18624;50.042;8.436;2024-01-25T03:57:17;23.50;;;9.88;;
32108;SDS011;18624;50.042;8.436;2024-01-25T03:59:43;26.05;;;9.05;;
32108;SDS011;18624;50.042;8.436;2024-01-25T04:02:10;25.02;;;9.10;;
32108;SDS011;18624;50.042;8.436;2024-01-25T04:04:37;25.98;;;9.98;;
32108;SDS011;18624;50.042;8.436;2024-01-25T04:07:03;24.83;;;8.52;;
32108;SDS011;18624;50.042;8.436;2024-01-25T04:09:30;26.15;;;8.65;;
32108;SDS011;18624;50.042;8.436;2024-01-25T04:11:57;23.73;;;8.68;;
32108;SDS011;18624;50.042;8.436;2024-01-25T04:14:23;19.38;;;7.82;;
32108;SDS011;18624;50.042;8.436;2024-01-25T04:16:50;22.08;;;7.63;;
32108;SDS011;18624;50.042;8.436;2024-01-25T04:19:16;18.38;;;8.43;;
32108;SDS011;18624;50.042;8.436;2024-01-25T04:21:43;22.25;;;7.70;;
32108;SDS011;18624;50.042;8.436;2024-01-25T04:24:09;22.13;;;9.10;;
32108;SDS011;18624;50.042;8.436;2024-01-25T04:26:36;20.92;;;6.78;;
32108;SDS011;18624;50.042;8.436;2024-01-25T04:29:02;23.90;;;7.85;;
32108;SDS011;18624;50.042;8.436;2024-01-25T04:31:29;18.90;;;7.88;;
32108;SDS011;18624;50.042;8.436;2024-01-25T04:33:55;14.82;;;6.85;;
32108;SDS011;18624;50.042;8.436;2024-01-25T04:36:23;25.55;;;9.43;;
32108;SDS011;18624;50.042;8.436;2024-01-25T04:38:49;25.98;;;9.15;;
32108;SDS011;18624;50.042;8.436;2024-01-25T04:41:16;20.98;;;8.15;;
32108;SDS011;18624;50.042;8.436;2024-01-25T04:43:42;21.88;;;8.70;;
32108;SDS011;18624;50.042;8.436;2024-01-25T04:46:09;20.25;;;8.10;;
32108;SDS011;18624;50.042;8.436;2024-01-25T04:48:35;18.90;;;8.70;;
32108;SDS011;18624;50.042;8.436;2024-01-25T04:51:03;20.70;;;9.05;;
32108;SDS011;18624;50.042;8.436;2024-01-25T04:53:29;28.25;;;8.82;;
32108;SDS011;18624;50.042;8.436;2024-01-25T04:55:56;22.05;;;7.75;;
32108;SDS011;18624;50.042;8.436;2024-01-25T04:58:23;24.92;;;8.65;;
32108;SDS011;18624;50.042;8.436;2024-01-25T05:00:49;22.63;;;8.45;;
32108;SDS011;18624;50.042;8.436;2024-01-25T05:03:19;19.02;;;7.78;;
32108;SDS011;18624;50.042;8.436;2024-01-25T05:05:46;22.08;;;7.97;;
32108;SDS011;18624;50.042;8.436;2024-01-25T05:08:13;26.13;;;9.43;;
32108;SDS011;18624;50.042;8.436;2024-01-25T05:10:39;17.35;;;7.93;;
32108;SDS011;18624;50.042;8.436;2024-01-25T05:13:06;23.40;;;7.93;;
32108;SDS011;18624;50.042;8.436;2024-01-25T05:15:33;22.63;;;7.72;;
32108;SDS011;18624;50.042;8.436;2024-01-25T05:18:01;20.15;;;7.38;;
32108;SDS011;18624;50.042;8.436;2024-01-25T05:20:28;24.92;;;9.07;;
32108;SDS011;18624;50.042;8.436;2024-01-25T05:23:03;19.83;;;7.60;;
32108;SDS011;18624;50.042;8.436;2024-01-25T05:25:30;22.48;;;7.68;;
32108;SDS011;18624;50.042;8.436;2024-01-25T05:27:57;22.73;;;7.60;;
32108;SDS011;18624;50.042;8.436;2024-01-25T05:30:24;24.83;;;9.23;;
32108;SDS011;18624;50.042;8.436;2024-01-25T05:32:51;28.17;;;9.10;;
32108;SDS011;18624;50.042;8.436;2024-01-25T05:35:19;21.13;;;8.05;;
32108;SDS011;18624;50.042;8.436;2024-01-25T05:37:46;20.10;;;8.73;;
32108;SDS011;18624;50.042;8.436;2024-01-25T05:40:13;20.88;;;7.38;;
32108;SDS011;18624;50.042;8.436;2024-01-25T05:42:39;29.55;;;9.32;;
32108;SDS011;18624;50.042;8.436;2024-01-25T05:45:06;22.48;;;7.65;;
32108;SDS011;18624;50.042;8.436;2024-01-25T05:47:34;25.67;;;8.43;;
32108;SDS011;18624;50.042;8.436;2024-01-25T05:50:01;28.17;;;9.00;;
32108;SDS011;18624;50.042;8.436;2024-01-25T05:52:28;24.48;;;9.90;;
32108;SDS011;18624;50.042;8.436;2024-01-25T05:54:55;27.30;;;8.45;;
32108;SDS011;18624;50.042;8.436;2024-01-25T05:57:22;23.42;;;8.13;;
32108;SDS011;18624;50.042;8.436;2024-01-25T05:59:48;27.58;;;9.10;;
32108;SDS011;18624;50.042;8.436;2024-01-25T06:02:14;25.05;;;8.77;;
32108;SDS011;18624;50.042;8.436;2024-01-25T06:04:42;24.90;;;9.48;;
32108;SDS011;18624;50.042;8.436;2024-01-25T06:07:08;29.75;;;10.18;;
32108;SDS011;18624;50.042;8.436;2024-01-25T06:09:35;29.58;;;7.97;;
32108;SDS011;18624;50.042;8.436;2024-01-25T06:12:01;27.20;;;9.75;;
32108;SDS011;18624;50.042;8.436;2024-01-25T06:14:30;22.73;;;10.73;;
32108;SDS011;18624;50.042;8.436;2024-01-25T06:16:56;31.92;;;10.30;;
32108;SDS011;18624;50.042;8.436;2024-01-25T06:19:23;22.55;;;8.02;;
32108;SDS011;18624;50.042;8.436;2024-01-25T06:21:49;28.02;;;9.27;;
32108;SDS011;18624;50.042;8.436;2024-01-25T06:24:16;30.15;;;9.75;;
32108;SDS011;18624;50.042;8.436;2024-01-25T06:26:42;24.63;;;8.43;;
32108;SDS011;18624;50.042;8.436;2024-01-25T06:29:09;21.35;;;8.07;;
32108;SDS011;18624;50.042;8.436;2024-01-25T06:31:42;20.95;;;8.07;;
32108;SDS011;18624;50.042;8.436;2024-01-25T06:34:10;23.55;;;8.60;;
32108;SDS011;18624;50.042;8.436;2024-01-25T06:36:37;20.05;;;8.05;;
32108;SDS011;18624;50.042;8.436;2024-01-25T06:39:03;22.25;;;8.93;;
32108;SDS011;18624;50.042;8.436;2024-01-25T06:41:30;25.73;;;10.70;;
32108;SDS011;18624;50.042;8.436;2024-01-25T06:43:57;18.55;;;8.05;;
32108;SDS011;18624;50.042;8.436;2024-01-25T06:46:23;24.98;;;9.23;;
32108;SDS011;18624;50.042;8.436;2024-01-25T06:48:50;20.20;;;9.30;;
32108;SDS011;18624;50.042;8.436;2024-01-25T06:51:17;29.95;;;11.23;;
32108;SDS011;18624;50.042;8.436;2024-01-25T06:53:43;30.80;;;10.95;;
32108;SDS011;18624;50.042;8.436;2024-01-25T06:56:10;25.10;;;10.48;;
32108;SDS011;18624;50.042;8.436;2024-01-25T06:58:37;33.08;;;14.82;;
32108;SDS011;18624;50.042;8.436;2024-01-25T07:01:04;24.00;;;11.73;;
32108;SDS011;18624;50.042;8.436;2024-01-25T07:03:34;36.08;;;15.30;;
32108;SDS011;18624;50.042;8.436;2024-01-25T07:06:01;25.35;;;12.80;;
32108;SDS011;18624;50.042;8.436;2024-01-25T07:08:28;29.48;;;12.05;;
32108;SDS011;18624;50.042;8.436;2024-01-25T07:10:54;21.17;;;9.55;;
32108;SDS011;18624;50.042;8.436;2024-01-25T07:13:22;24.00;;;10.43;;
32108;SDS011;18624;50.042;8.436;2024-01-25T07:15:49;22.13;;;9.57;;
32108;SDS011;18624;50.042;8.436;2024-01-25T07:18:16;17.33;;;8.35;;
32108;SDS011;18624;50.042;8.436;2024-01-25T07:20:42;20.17;;;9.52;;
32108;SDS011;18624;50.042;8.436;2024-01-25T07:23:09;23.70;;;9.18;;
32108;SDS011;18624;50.042;8.436;2024-01-25T07:25:35;19.77;;;8.75;;
32108;SDS011;18624;50.042;8.436;2024-01-25T07:28:02;23.50;;;9.68;;
32108;SDS011;18624;50.042;8.436;2024-01-25T07:30:28;22.88;;;9.95;;
32108;SDS011;18624;50.042;8.436;2024-01-25T07:32:55;29.10;;;10.05;;
32108;SDS011;18624;50.042;8.436;2024-01-25T07:35:21;20.02;;;8.65;;
32108;SDS011;18624;50.042;8.436;2024-01-25T07:37:50;31.33;;;11.63;;
32108;SDS011;18624;50.042;8.436;2024-01-25T07:40:16;35.60;;;15.63;;
32108;SDS011;18624;50.042;8.436;2024-01-25T07:42:42;40.58;;;16.73;;
32108;SDS011;18624;50.042;8.436;2024-01-25T07:45:09;36.28;;;13.43;;
32108;SDS011;18624;50.042;8.436;2024-01-25T07:47:36;35.20;;;13.52;;
32108;SDS011;18624;50.042;8.436;2024-01-25T07:50:02;35.75;;;13.25;;
32108;SDS011;18624;50.042;8.436;2024-01-25T07:52:29;28.65;;;11.68;;
32108;SDS011;18624;50.042;8.436;2024-01-25T07:54:56;25.58;;;11.02;;
32108;SDS011;18624;50.042;8.436;2024-01-25T07:57:22;28.35;;;9.20;;
32108;SDS011;18624;50.042;8.436;2024-01-25T07:59:49;26.42;;;9.35;;
32108;SDS011;18624;50.042;8.436;2024-01-25T08:02:15;30.23;;;10.18;;
32108;SDS011;18624;50.042;8.436;2024-01-25T08:04:46;27.50;;;9.75;;
32108;SDS011;18624;50.042;8.436;2024-01-25T08:07:13;27.88;;;10.63;;
32108;SDS011;18624;50.042;8.436;2024-01-25T08:09:40;26.17;;;11.93;;
32108;SDS011;18624;50.042;8.436;2024-01-25T08:12:06;27.67;;;9.88;;
32108;SDS011;18624;50.042;8.436;2024-01-25T08:14:33;31.13;;;11.60;;
32108;SDS011;18624;50.042;8.436;2024-01-25T08:16:59;30.35;;;9.70;;
32108;SDS011;18624;50.042;8.436;2024-01-25T08:19:26;32.72;;;10.63;;
32108;SDS011;18624;50.042;8.436;2024-01-25T08:21:53;28.85;;;9.88;;
32108;SDS011;18624;50.042;8.436;2024-01-25T08:24:19;26.52;;;9.35;;
32108;SDS011;18624;50.042;8.436;2024-01-25T08:26:45;30.33;;;11.57;;
32108;SDS011;18624;50.042;8.436;2024-01-25T08:29:12;20.15;;;8.23;;
32108;SDS011;18624;50.042;8.436;2024-01-25T08:31:39;24.85;;;11.05;;
32108;SDS011;18624;50.042;8.436;2024-01-25T08:34:05;25.08;;;9.95;;
32108;SDS011;18624;50.042;8.436;2024-01-25T08:36:33;20.60;;;8.13;;
32108;SDS011;18624;50.042;8.436;2024-01-25T08:38:59;18.95;;;7.70;;
32108;SDS011;18624;50.042;8.436;2024-01-25T08:41:26;23.75;;;8.48;;
32108;SDS011;18624;50.042;8.436;2024-01-25T08:43:52;29.23;;;10.40;;
32108;SDS011;18624;50.042;8.436;2024-01-25T08:46:19;20.52;;;8.93;;
32108;SDS011;18624;50.042;8.436;2024-01-25T08:48:46;25.17;;;9.45;;
32108;SDS011;18624;50.042;8.436;2024-01-25T08:51:12;25.10;;;12.75;;
32108;SDS011;18624;50.042;8.436;2024-01-25T08:53:39;26.17;;;9.85;;
32108;SDS011;18624;50.042;8.436;2024-01-25T08:56:05;27.35;;;10.00;;
32108;SDS011;18624;50.042;8.436;2024-01-25T08:58:32;28.33;;;10.43;;
32108;SDS011;18624;50.042;8.436;2024-01-25T09:00:59;27.77;;;9.80;;
32108;SDS011;18624;50.042;8.436;2024-01-25T09:03:26;26.48;;;10.75;;
32108;SDS011;18624;50.042;8.436;2024-01-25T09:05:52;28.85;;;11.63;;
32108;SDS011;18624;50.042;8.436;2024-01-25T09:08:19;39.17;;;12.80;;
32108;SDS011;18624;50.042;8.436;2024-01-25T09:10:46;32.35;;;11.20;;
32108;SDS011;18624;50.042;8.436;2024-01-25T09:13:13;24.92;;;10.70;;
32108;SDS011;18624;50.042;8.436;2024-01-25T09:15:39;31.48;;;11.02;;
32108;SDS011;18624;50.042;8.436;2024-01-25T09:18:06;25.58;;;8.88;;
32108;SDS011;18624;50.042;8.436;2024-01-25T09:20:33;29.50;;;10.65;;
32108;SDS011;18624;50.042;8.436;2024-01-25T09:22:59;31.98;;;11.10;;
32108;SDS011;18624;50.042;8.436;2024-01-25T09:25:26;33.47;;;11.02;;
32108;SDS011;18624;50.042;8.436;2024-01-25T09:27:52;27.77;;;10.43;;
32108;SDS011;18624;50.042;8.436;2024-01-25T09:30:22;24.08;;;8.98;;
32108;SDS011;18624;50.042;8.436;2024-01-25T09:32:49;30.00;;;9.65;;
32108;SDS011;18624;50.042;8.436;2024-01-25T09:35:16;23.88;;;9.43;;
32108;SDS011;18624;50.042;8.436;2024-01-25T09:37:43;23.35;;;8.07;;
32108;SDS011;18624;50.042;8.436;2024-01-25T09:40:09;26.95;;;10.10;;
32108;SDS011;18624;50.042;8.436;2024-01-25T09:42:37;30.70;;;9.50;;
32108;SDS011;18624;50.042;8.436;2024-01-25T09:45:06;28.27;;;10.85;;
32108;SDS011;18624;50.042;8.436;2024-01-25T09:47:33;29.05;;;10.15;;
32108;SDS011;18624;50.042;8.436;2024-01-25T09:50:00;23.40;;;9.02;;
32108;SDS011;18624;50.042;8.436;2024-01-25T09:52:27;25.13;;;8.90;;
32108;SDS011;18624;50.042;8.436;2024-01-25T09:54:57;24.92;;;10.45;;
32108;SDS011;18624;50.042;8.436;2024-01-25T09:57:24;33.55;;;11.10;;
32108;SDS011;18624;50.042;8.436;2024-01-25T09:59:54;26.80;;;10.52;;
32108;SDS011;18624;50.042;8.436;2024-01-25T10:02:21;32.60;;;10.85;;
32108;SDS011;18624;50.042;8.436;2024-01-25T10:04:49;32.00;;;12.85;;
32108;SDS011;18624;50.042;8.436;2024-01-25T10:07:34;28.25;;;11.10;;
32108;SDS011;18624;50.042;8.436;2024-01-25T10:10:05;40.78;;;15.45;;
32108;SDS011;18624;50.042;8.436;2024-01-25T10:12:33;27.02;;;10.70;;
32108;SDS011;18624;50.042;8.436;2024-01-25T10:14:59;39.20;;;12.35;;
32108;SDS011;18624;50.042;8.436;2024-01-25T10:17:27;32.47;;;9.85;;
32108;SDS011;18624;50.042;8.436;2024-01-25T10:20:14;27.65;;;10.07;;
32108;SDS011;18624;50.042;8.436;2024-01-25T10:22:43;29.63;;;10.52;;
32108;SDS011;18624;50.042;8.436;2024-01-25T10:25:13;27.00;;;9.13;;
32108;SDS011;18624;50.042;8.436;2024-01-25T10:27:40;31.10;;;9.10;;
32108;SDS011;18624;50.042;8.436;2024-01-25T10:30:09;21.75;;;9.77;;
32108;SDS011;18624;50.042;8.436;2024-01-25T10:32:36;33.28;;;11.73;;
32108;SDS011;18624;50.042;8.436;2024-01-25T10:35:03;29.50;;;12.20;;
32108;SDS011;18624;50.042;8.436;2024-01-25T10:37:31;28.55;;;11.38;;
32108;SDS011;18624;50.042;8.436;2024-01-25T10:39:59;29.75;;;11.13;;
32108;SDS011;18624;50.042;8.436;2024-01-25T10:42:26;26.67;;;10.45;;
32108;SDS011;18624;50.042;8.436;2024-01-25T10:44:53;30.23;;;10.98;;
32108;SDS011;18624;50.042;8.436;2024-01-25T10:47:20;23.30;;;10.07;;
32108;SDS011;18624;50.042;8.436;2024-01-25T10:49:47;25.60;;;9.15;;
32108;SDS011;18624;50.042;8.436;2024-01-25T10:52:14;29.52;;;10.15;;
32108;SDS011;18624;50.042;8.436;2024-01-25T10:54:41;25.95;;;9.70;;
32108;SDS011;18624;50.042;8.436;2024-01-25T10:57:08;28.52;;;9.70;;
32108;SDS011;18624;50.042;8.436;2024-01-25T10:59:34;24.85;;;9.80;;
32108;SDS011;18624;50.042;8.436;2024-01-25T11:02:01;23.63;;;9.43;;
32108;SDS011;18624;50.042;8.436;2024-01-25T11:04:29;27.80;;;9.13;;
32108;SDS011;18624;50.042;8.436;2024-01-25T11:07:04;23.42;;;8.80;;
32108;SDS011;18624;50.042;8.436;2024-01-25T11:09:38;32.90;;;10.85;;
32108;SDS011;18624;50.042;8.436;2024-01-25T11:12:11;27.20;;;9.18;;
32108;SDS011;18624;50.042;8.436;2024-01-25T11:14:39;27.77;;;11.25;;
32108;SDS011;18624;50.042;8.436;2024-01-25T11:17:18;22.98;;;8.95;;
32108;SDS011;18624;50.042;8.436;2024-01-25T11:19:47;22.20;;;9.27;;
32108;SDS011;18624;50.042;8.436;2024-01-25T11:22:15;21.10;;;9.15;;
32108;SDS011;18624;50.042;8.436;2024-01-25T11:24:41;34.95;;;12.88;;
32108;SDS011;18624;50.042;8.436;2024-01-25T11:27:12;33.92;;;13.32;;
32108;SDS011;18624;50.042;8.436;2024-01-25T11:29:39;30.45;;;10.05;;
32108;SDS011;18624;50.042;8.436;2024-01-25T11:32:11;20.70;;;10.32;;
32108;SDS011;18624;50.042;8.436;2024-01-25T11:34:38;21.95;;;9.35;;
32108;SDS011;18624;50.042;8.436;2024-01-25T11:37:04;27.35;;;11.05;;
32108;SDS011;18624;50.042;8.436;2024-01-25T11:39:31;25.73;;;9.88;;
32108;SDS011;18624;50.042;8.436;2024-01-25T11:41:58;26.98;;;10.38;;
32108;SDS011;18624;50.042;8.436;2024-01-25T11:44:25;30.35;;;10.65;;
32108;SDS011;18624;50.042;8.436;2024-01-25T11:46:53;26.08;;;10.15;;
32108;SDS011;18624;50.042;8.436;2024-01-25T11:49:22;27.45;;;9.93;;
32108;SDS011;18624;50.042;8.436;2024-01-25T11:51:50;24.40;;;9.95;;
32108;SDS011;18624;50.042;8.436;2024-01-25T11:54:16;25.52;;;9.52;;
32108;SDS011;18624;50.042;8.436;2024-01-25T11:56:44;22.77;;;5.97;;
32108;SDS011;18624;50.042;8.436;2024-01-25T11:59:11;26.20;;;9.05;;
32108;SDS011;18624;50.042;8.436;2024-01-25T12:01:38;29.70;;;10.02;;
32108;SDS011;18624;50.042;8.436;2024-01-25T12:04:07;32.95;;;9.73;;
32108;SDS011;18624;50.042;8.436;2024-01-25T12:06:34;24.45;;;8.15;;
32108;SDS011;18624;50.042;8.436;2024-01-25T12:09:10;29.52;;;12.90;;
32108;SDS011;18624;50.042;8.436;2024-01-25T12:11:39;27.30;;;9.85;;
32108;SDS011;18624;50.042;8.436;2024-01-25T12:14:07;24.27;;;9.60;;
32108;SDS011;18624;50.042;8.436;2024-01-25T12:16:35;21.23;;;9.73;;
32108;SDS011;18624;50.042;8.436;2024-01-25T12:19:04;30.77;;;9.43;;
32108;SDS011;18624;50.042;8.436;2024-01-25T12:21:32;23.15;;;9.85;;
32108;SDS011;18624;50.042;8.436;2024-01-25T12:26:55;19.90;;;8.52;;
32108;SDS011;18624;50.042;8.436;2024-01-25T12:29:22;25.10;;;8.02;;
32108;SDS011;18624;50.042;8.436;2024-01-25T12:31:49;24.23;;;9.93;;
32108;SDS011;18624;50.042;8.436;2024-01-25T12:34:15;29.58;;;10.13;;
32108;SDS011;18624;50.042;8.436;2024-01-25T12:36:43;24.42;;;8.18;;
32108;SDS011;18624;50.042;8.436;2024-01-25T12:39:10;23.58;;;8.50;;
32108;SDS011;18624;50.042;8.436;2024-01-25T12:41:37;26.13;;;8.55;;
32108;SDS011;18624;50.042;8.436;2024-01-25T12:44:04;25.35;;;8.02;;
32108;SDS011;18624;50.042;8.436;2024-01-25T12:46:30;20.50;;;7.57;;
32108;SDS011;18624;50.042;8.436;2024-01-25T12:49:01;29.92;;;9.90;;
32108;SDS011;18624;50.042;8.436;2024-01-25T12:51:30;20.15;;;8.90;;
32108;SDS011;18624;50.042;8.436;2024-01-25T12:53:56;24.77;;;10.20;;
32108;SDS011;18624;50.042;8.436;2024-01-25T12:56:23;19.27;;;8.63;;
32108;SDS011;18624;50.042;8.436;2024-01-25T12:58:50;27.77;;;8.68;;
32108;SDS011;18624;50.042;8.436;2024-01-25T13:01:17;22.63;;;9.52;;
32108;SDS011;18624;50.042;8.436;2024-01-25T13:03:44;22.60;;;7.93;;
32108;SDS011;18624;50.042;8.436;2024-01-25T13:06:13;27.40;;;8.90;;
32108;SDS011;18624;50.042;8.436;2024-01-25T13:08:40;20.30;;;8.32;;
32108;SDS011;18624;50.042;8.436;2024-01-25T13:11:07;18.40;;;8.00;;
32108;SDS011;18624;50.042;8.436;2024-01-25T13:13:33;25.17;;;8.88;;
32108;SDS011;18624;50.042;8.436;2024-01-25T13:16:00;25.33;;;9.10;;
32108;SDS011;18624;50.042;8.436;2024-01-25T13:18:28;23.00;;;7.53;;
32108;SDS011;18624;50.042;8.436;2024-01-25T13:20:54;28.98;;;10.80;;
32108;SDS011;18624;50.042;8.436;2024-01-25T13:23:20;21.48;;;9.05;;
32108;SDS011;18624;50.042;8.436;2024-01-25T13:25:47;31.30;;;10.43;;
32108;SDS011;18624;50.042;8.436;2024-01-25T13:28:13;24.05;;;9.07;;
32108;SDS011;18624;50.042;8.436;2024-01-25T13:30:40;27.60;;;8.52;;
32108;SDS011;18624;50.042;8.436;2024-01-25T13:33:06;24.92;;;8.65;;
32108;SDS011;18624;50.042;8.436;2024-01-25T13:35:33;22.05;;;8.65;;
32108;SDS011;18624;50.042;8.436;2024-01-25T13:37:59;19.65;;;7.85;;
32108;SDS011;18624;50.042;8.436;2024-01-25T13:40:27;26.73;;;9.88;;
32108;SDS011;18624;50.042;8.436;2024-01-25T13:42:54;23.58;;;9.15;;
32108;SDS011;18624;50.042;8.436;2024-01-25T13:45:21;23.83;;;9.80;;
32108;SDS011;18624;50.042;8.436;2024-01-25T13:47:47;33.22;;;13.00;;
32108;SDS011;18624;50.042;8.436;2024-01-25T13:50:14;32.58;;;12.30;;
32108;SDS011;18624;50.042;8.436;2024-01-25T13:52:40;28.98;;;13.32;;
32108;SDS011;18624;50.042;8.436;2024-01-25T13:55:07;29.05;;;14.73;;
32108;SDS011;18624;50.042;8.436;2024-01-25T13:57:34;37.10;;;16.73;;
32108;SDS011;18624;50.042;8.436;2024-01-25T14:00:00;45.03;;;18.42;;
32108;SDS011;18624;50.042;8.436;2024-01-25T14:02:29;23.30;;;10.45;;
32108;SDS011;18624;50.042;8.436;2024-01-25T14:04:56;35.50;;;15.80;;
32108;SDS011;18624;50.042;8.436;2024-01-25T14:07:22;31.35;;;13.35;;
32108;SDS011;18624;50.042;8.436;2024-01-25T14:09:49;28.55;;;11.95;;
32108;SDS011;18624;50.042;8.436;2024-01-25T14:12:18;17.15;;;8.50;;
32108;SDS011;18624;50.042;8.436;2024-01-25T14:14:45;20.35;;;8.25;;
32108;SDS011;18624;50.042;8.436;2024-01-25T14:17:11;34.40;;;10.20;;
32108;SDS011;18624;50.042;8.436;2024-01-25T14:19:38;22.52;;;8.88;;
32108;SDS011;18624;50.042;8.436;2024-01-25T14:22:05;22.65;;;9.13;;
32108;SDS011;18624;50.042;8.436;2024-01-25T14:24:51;28.73;;;9.38;;
32108;SDS011;18624;50.042;8.436;2024-01-25T14:27:18;23.23;;;9.65;;
32108;SDS011;18624;50.042;8.436;2024-01-25T14:29:44;25.73;;;9.40;;
32108;SDS011;18624;50.042;8.436;2024-01-25T14:32:11;24.20;;;9.32;;